Time;durP1;ratioP1;P1;durP2;ratioP2;P2;SDS_P1;SDS_P2;PMS_P1;PMS_P2;Temp;Humidity;BMP_temperature;BMP_pressure;BME280_temperature;BME280_humidity;BME280_pressure;Samples;Min_cycle;Max_cycle;Signal;HPM_P1;HPM_P2
2021/12/07 00:01:32;;;;;;;37.00;26.13;;;2.10;99.90;;;;;;4987250;28;20389;-50
2021/12/07 00:03:58;;;;;;;36.63;25.50;;;2.00;99.90;;;;;;4966889;28;20547;-48
2021/12/07 00:06:24;;;;;;;41.60;26.95;;;2.00;99.90;;;;;;5008390;28;20405;-52
2021/12/07 00:08:54;;;;;;;38.60;26.10;;;1.90;99.90;;;;;;4992132;28;20386;-51
2021/12/07 00:11:23;;;;;;;41.10;27.65;;;1.90;99.90;;;;;;5008343;28;20054;-51
2021/12/07 00:13:50;;;;;;;43.92;28.35;;;1.90;99.90;;;;;;4975771;28;20084;-54
2021/12/07 00:16:18;;;;;;;45.83;28.58;;;1.80;99.90;;;;;;4975658;28;20103;-53
2021/12/07 00:18:46;;;;;;;42.42;27.17;;;1.80;99.90;;;;;;4988196;28;20133;-53
2021/12/07 00:21:16;;;;;;;43.95;28.58;;;1.80;99.90;;;;;;4973789;28;20046;-50
2021/12/07 00:23:42;;;;;;;49.03;31.13;;;1.80;99.90;;;;;;4991830;28;20049;-53
2021/12/07 00:26:09;;;;;;;43.85;28.58;;;1.70;99.90;;;;;;5008223;28;20501;-54
2021/12/07 00:28:35;;;;;;;46.03;29.55;;;1.70;99.90;;;;;;4954967;28;20046;-52
2021/12/07 00:31:11;;;;;;;43.70;27.85;;;1.70;99.90;;;;;;4985150;28;20045;-53
2021/12/07 00:33:48;;;;;;;46.80;29.27;;;1.70;99.90;;;;;;4970638;28;20101;-51
2021/12/07 00:36:14;;;;;;;40.83;27.27;;;1.70;99.90;;;;;;5001537;28;20136;-51
2021/12/07 00:38:41;;;;;;;44.33;29.45;;;1.60;99.90;;;;;;4984738;28;20108;-60
2021/12/07 00:41:07;;;;;;;44.60;28.25;;;1.50;99.90;;;;;;5005199;28;20039;-60
2021/12/07 00:43:33;;;;;;;46.05;28.65;;;1.50;99.90;;;;;;5007083;28;20572;-60
2021/12/07 00:46:01;;;;;;;48.20;29.48;;;1.50;99.90;;;;;;5006772;28;20050;-60
2021/12/07 00:48:28;;;;;;;47.25;30.00;;;1.40;99.90;;;;;;4989552;28;20141;-60
2021/12/07 00:50:56;;;;;;;49.97;30.77;;;1.40;99.90;;;;;;4974789;28;20049;-61
2021/12/07 00:53:24;;;;;;;51.08;30.48;;;1.30;99.90;;;;;;5000942;28;20054;-61
2021/12/07 00:55:53;;;;;;;54.28;30.95;;;1.30;99.90;;;;;;4955156;28;20103;-60
2021/12/07 00:58:23;;;;;;;50.83;29.55;;;1.20;99.90;;;;;;4993368;28;20046;-60
2021/12/07 01:00:56;;;;;;;;;;;1.20;99.90;;;;;;4994660;28;20046;-60
2021/12/07 01:03:23;;;;;;;54.50;29.65;;;1.20;99.90;;;;;;4994347;28;19917;-60
2021/12/07 01:05:53;;;;;;;51.72;29.95;;;1.20;99.90;;;;;;4994372;28;20096;-60
2021/12/07 01:25:09;;;;;;;53.83;32.25;;;1.10;99.90;;;;;;4913057;29;20183;-60
2021/12/07 01:27:36;;;;;;;61.70;34.08;;;1.10;99.90;;;;;;4960508;28;20054;-60
2021/12/07 01:30:16;;;;;;;60.90;32.33;;;1.00;99.90;;;;;;4991310;28;20046;-59
2021/12/07 01:33:00;;;;;;;62.47;34.17;;;1.00;99.90;;;;;;4959239;28;20046;-60
2021/12/07 01:35:45;;;;;;;53.55;31.02;;;1.00;99.90;;;;;;4974198;28;20046;-59
2021/12/07 01:41:13;;;;;;;56.42;32.55;;;1.10;99.90;;;;;;4972972;28;20038;-60
2021/12/07 01:46:38;;;;;;;54.38;30.15;;;1.00;99.90;;;;;;4958101;28;20052;-55
2021/12/07 01:59:48;;;;;;;59.47;32.30;;;1.00;99.90;;;;;;4957649;28;20526;-57
2021/12/07 02:02:17;;;;;;;55.75;31.25;;;1.00;99.90;;;;;;4982085;28;20050;-57
2021/12/07 02:04:44;;;;;;;52.25;29.30;;;1.10;99.90;;;;;;4974069;28;20042;-57
2021/12/07 02:07:14;;;;;;;47.60;30.17;;;1.00;99.90;;;;;;4973629;28;20053;-57
2021/12/07 02:09:49;;;;;;;45.25;28.27;;;1.00;99.90;;;;;;4958005;28;20512;-57
2021/12/07 02:12:15;;;;;;;52.78;31.42;;;1.00;99.90;;;;;;4947627;28;20053;-57
2021/12/07 02:14:43;;;;;;;50.33;30.00;;;1.00;99.90;;;;;;4976811;28;20182;-55
2021/12/07 02:17:13;;;;;;;51.50;30.88;;;1.00;99.90;;;;;;4976960;28;20054;-56
2021/12/07 02:19:41;;;;;;;54.30;30.27;;;1.10;99.90;;;;;;5009150;28;20152;-56
2021/12/07 02:22:10;;;;;;;49.72;29.40;;;1.00;99.90;;;;;;4994243;28;20046;-55
2021/12/07 02:24:42;;;;;;;54.33;30.70;;;1.00;99.90;;;;;;4993698;28;20050;-55
2021/12/07 02:27:08;;;;;;;50.05;30.48;;;1.00;99.90;;;;;;4992189;28;20053;-60
2021/12/07 02:29:34;;;;;;;51.45;30.55;;;1.10;99.90;;;;;;4993680;28;20058;-60
2021/12/07 02:32:02;;;;;;;45.58;27.65;;;1.10;99.90;;;;;;4991834;28;20049;-54
2021/12/07 02:34:29;;;;;;;45.85;29.50;;;1.10;99.90;;;;;;4992417;28;20494;-54
2021/12/07 02:36:56;;;;;;;48.47;29.38;;;1.10;99.90;;;;;;4990745;28;20060;-52
2021/12/07 02:39:33;;;;;;;45.47;27.88;;;1.20;99.90;;;;;;4977636;28;20041;-52
2021/12/07 02:42:04;;;;;;;48.30;29.23;;;1.20;99.90;;;;;;4991738;28;20045;-53
2021/12/07 02:44:32;;;;;;;50.55;28.55;;;1.20;99.90;;;;;;4992773;28;20527;-50
2021/12/07 02:46:59;;;;;;;46.70;29.83;;;1.20;99.90;;;;;;4993804;28;20504;-61
2021/12/07 02:49:25;;;;;;;51.92;29.50;;;1.20;99.90;;;;;;4993108;28;20052;-61
2021/12/07 02:51:52;;;;;;;52.22;30.73;;;1.30;99.90;;;;;;4992725;28;20056;-52
2021/12/07 02:54:19;;;;;;;51.05;31.25;;;1.20;99.90;;;;;;5010720;28;20264;-53
2021/12/07 02:56:46;;;;;;;46.72;28.20;;;1.20;99.90;;;;;;4976381;28;20049;-52
2021/12/07 02:59:16;;;;;;;53.95;30.75;;;1.30;99.90;;;;;;4975889;28;20053;-52
2021/12/07 03:01:48;;;;;;;48.53;30.10;;;1.30;99.90;;;;;;4992145;28;20120;-50
2021/12/07 03:04:24;;;;;;;45.83;30.23;;;1.30;99.90;;;;;;4975099;28;20041;-51
2021/12/07 03:28:23;;;;;;;55.20;31.13;;;1.40;99.90;;;;;;4992606;28;20057;-63
2021/12/07 03:30:50;;;;;;;54.35;31.55;;;1.40;99.90;;;;;;4973939;28;20054;-63
2021/12/07 03:33:16;;;;;;;50.85;31.08;;;1.40;99.90;;;;;;4976366;28;20053;-63
2021/12/07 03:35:44;;;;;;;55.05;32.47;;;1.30;99.90;;;;;;4969311;28;20587;-52
2021/12/07 03:38:11;;;;;;;55.55;32.47;;;1.30;99.90;;;;;;4986065;28;20125;-63
2021/12/07 03:40:38;;;;;;;49.95;30.17;;;1.20;99.90;;;;;;4991045;28;20100;-63
2021/12/07 03:43:06;;;;;;;50.58;30.50;;;1.20;99.90;;;;;;4991050;28;20077;-63
2021/12/07 03:45:33;;;;;;;51.20;31.08;;;1.20;99.90;;;;;;4974231;28;20172;-63
2021/12/07 03:48:03;;;;;;;49.75;30.33;;;1.10;99.90;;;;;;4986850;28;20053;-63
2021/12/07 03:50:29;;;;;;;54.58;31.77;;;1.20;99.90;;;;;;5002118;28;20053;-63
2021/12/07 03:52:55;;;;;;;54.80;31.05;;;1.20;99.90;;;;;;4973542;28;20531;-63
2021/12/07 03:55:22;;;;;;;54.65;29.77;;;1.20;99.90;;;;;;4975005;28;20056;-62
2021/12/07 03:57:49;;;;;;;51.67;29.38;;;1.10;99.90;;;;;;4991660;28;20404;-52
2021/12/07 04:00:20;;;;;;;55.15;29.92;;;1.10;99.90;;;;;;4991511;28;20082;-54
2021/12/07 04:02:52;;;;;;;47.58;27.33;;;1.20;99.90;;;;;;4976203;28;20429;-63
2021/12/07 04:05:22;;;;;;;56.92;29.30;;;1.20;99.90;;;;;;4975589;28;20088;-62
2021/12/07 04:07:51;;;;;;;51.10;28.63;;;1.20;99.90;;;;;;4993652;28;20528;-62
2021/12/07 04:10:19;;;;;;;50.47;28.33;;;1.10;99.90;;;;;;4958870;28;20145;-63
2021/12/07 04:12:46;;;;;;;49.15;27.83;;;1.10;99.90;;;;;;4991598;28;20137;-63
2021/12/07 04:15:14;;;;;;;47.65;28.27;;;1.10;99.90;;;;;;5008196;28;20042;-62
2021/12/07 04:17:41;;;;;;;52.13;29.40;;;1.00;99.90;;;;;;4990615;28;20497;-63
2021/12/07 04:20:10;;;;;;;52.70;28.63;;;1.10;99.90;;;;;;4991829;28;20386;-62
2021/12/07 04:22:36;;;;;;;51.92;28.75;;;1.00;99.90;;;;;;4991189;28;20060;-62
2021/12/07 04:25:06;;;;;;;52.05;28.65;;;1.10;99.90;;;;;;5008542;28;20563;-63
2021/12/07 04:27:37;;;;;;;53.72;29.02;;;1.10;99.90;;;;;;4992038;28;20505;-63
2021/12/07 04:30:07;;;;;;;55.75;28.67;;;1.20;99.90;;;;;;5009200;28;20065;-62
2021/12/07 04:32:34;;;;;;;55.10;28.33;;;1.30;99.90;;;;;;5006109;28;20061;-54
2021/12/07 04:35:00;;;;;;;47.13;26.92;;;1.20;99.90;;;;;;4974325;28;20042;-54
2021/12/07 04:37:26;;;;;;;48.63;25.88;;;1.20;99.90;;;;;;5007303;28;20493;-53
2021/12/07 04:39:52;;;;;;;43.63;25.85;;;1.20;99.90;;;;;;4974285;28;20073;-55
2021/12/07 04:42:18;;;;;;;44.25;25.90;;;1.20;99.90;;;;;;5007407;28;20096;-63
2021/12/07 04:44:52;;;;;;;45.15;24.77;;;1.20;99.90;;;;;;5008617;28;20054;-62
2021/12/07 04:47:27;;;;;;;47.92;24.83;;;1.20;99.90;;;;;;4989201;28;20053;-55
2021/12/07 04:57:57;;;;;;;42.33;23.17;;;1.00;99.90;;;;;;5007501;28;20795;-54
2021/12/07 05:00:26;;;;;;;35.85;22.13;;;1.00;99.90;;;;;;4987972;28;20050;-54
2021/12/07 05:03:03;;;;;;;39.15;22.52;;;1.10;99.90;;;;;;4989328;28;20133;-56
2021/12/07 05:05:34;;;;;;;38.42;23.00;;;1.00;99.90;;;;;;4999497;28;20446;-55
2021/12/07 05:08:04;;;;;;;36.77;21.30;;;1.00;99.90;;;;;;5007450;28;20054;-56
2021/12/07 05:23:56;;;;;;;52.58;23.98;;;0.90;99.90;;;;;;4977012;28;20069;-61
2021/12/07 05:40:14;;;;;;;45.63;21.98;;;0.80;99.90;;;;;;4992865;28;20103;-53
2021/12/07 05:42:41;;;;;;;48.58;22.05;;;1.00;99.90;;;;;;4993639;28;20049;-52
2021/12/07 05:45:13;;;;;;;47.53;24.05;;;1.00;99.90;;;;;;4963251;28;20045;-52
2021/12/07 05:47:40;;;;;;;41.40;23.47;;;1.10;99.90;;;;;;5006609;28;20042;-53
2021/12/07 05:50:07;;;;;;;43.00;21.92;;;1.10;99.90;;;;;;4973233;28;20520;-53
2021/12/07 05:52:34;;;;;;;41.38;21.55;;;1.10;99.90;;;;;;4991093;28;20077;-52
2021/12/07 05:55:00;;;;;;;43.58;23.15;;;1.00;99.90;;;;;;4977196;28;20566;-53
2021/12/07 05:57:26;;;;;;;37.78;21.48;;;1.00;99.90;;;;;;5010891;28;20385;-53
2021/12/07 05:59:53;;;;;;;41.92;22.55;;;0.90;99.90;;;;;;4991421;28;20484;-53
2021/12/07 06:02:19;;;;;;;39.88;21.55;;;0.90;99.90;;;;;;4990405;28;20042;-55
2021/12/07 06:04:45;;;;;;;39.60;22.08;;;0.90;99.90;;;;;;4997887;28;20159;-54
2021/12/07 06:07:11;;;;;;;44.40;21.20;;;1.00;99.90;;;;;;5011354;28;20145;-61
2021/12/07 06:09:38;;;;;;;40.67;22.63;;;1.00;99.90;;;;;;5010102;28;20081;-61
2021/12/07 06:12:05;;;;;;;45.97;23.30;;;1.10;99.90;;;;;;4978320;28;20496;-61
2021/12/07 06:14:35;;;;;;;46.80;22.20;;;1.10;99.90;;;;;;5006127;28;20104;-53
2021/12/07 06:17:01;;;;;;;43.53;22.98;;;1.20;99.90;;;;;;5003640;28;20042;-54
2021/12/07 06:19:27;;;;;;;40.50;21.40;;;1.20;99.90;;;;;;5010161;28;20053;-50
2021/12/07 06:21:54;;;;;;;43.22;23.10;;;1.30;99.90;;;;;;5011133;28;20088;-51
2021/12/07 06:24:20;;;;;;;50.60;23.65;;;1.40;99.90;;;;;;4993126;28;20054;-54
2021/12/07 06:26:46;;;;;;;42.78;21.65;;;1.40;99.90;;;;;;5010741;28;20038;-61
2021/12/07 06:29:13;;;;;;;41.28;22.98;;;1.40;99.90;;;;;;4977266;28;20103;-61
2021/12/07 06:31:39;;;;;;;41.72;22.30;;;1.40;99.90;;;;;;5005793;28;20133;-61
2021/12/07 06:34:05;;;;;;;36.83;21.73;;;1.40;99.90;;;;;;4977306;28;20053;-61
2021/12/07 06:36:31;;;;;;;37.58;21.40;;;1.30;99.90;;;;;;4992310;28;20049;-61
2021/12/07 06:38:57;;;;;;;39.38;21.65;;;1.30;99.90;;;;;;4977033;28;20049;-61
2021/12/07 06:41:23;;;;;;;44.25;21.58;;;1.30;99.90;;;;;;4974868;28;20045;-62
2021/12/07 06:43:49;;;;;;;41.50;22.50;;;1.30;99.90;;;;;;5010328;28;20635;-62
2021/12/07 06:46:15;;;;;;;38.05;23.13;;;1.30;99.90;;;;;;4974608;28;20137;-62
2021/12/07 06:48:41;;;;;;;46.20;24.15;;;1.30;99.90;;;;;;4981446;28;20042;-62
2021/12/07 06:51:08;;;;;;;47.05;23.95;;;1.20;99.90;;;;;;4958127;28;20085;-62
2021/12/07 06:53:36;;;;;;;39.55;20.85;;;1.20;99.90;;;;;;4990241;28;20060;-62
2021/12/07 06:56:05;;;;;;;44.95;21.48;;;1.20;99.90;;;;;;5004073;28;20502;-62
2021/12/07 06:58:31;;;;;;;43.20;22.25;;;1.20;99.90;;;;;;4990537;28;20050;-62
2021/12/07 07:00:57;;;;;;;43.38;22.00;;;1.10;99.90;;;;;;4973591;28;20053;-62
2021/12/07 07:03:23;;;;;;;39.15;21.50;;;1.10;99.90;;;;;;4977931;28;20066;-62
2021/12/07 07:05:49;;;;;;;48.75;24.17;;;1.00;99.90;;;;;;4949147;28;20588;-61
2021/12/07 07:08:15;;;;;;;43.20;22.65;;;1.00;99.90;;;;;;4988546;28;20054;-53
2021/12/07 07:10:42;;;;;;;46.88;22.83;;;1.00;99.90;;;;;;4976686;28;20596;-52
2021/12/07 07:13:08;;;;;;;50.65;23.30;;;0.90;99.90;;;;;;5010191;28;20417;-52
2021/12/07 07:15:35;;;;;;;47.70;23.40;;;0.90;99.90;;;;;;4992801;28;20454;-53
2021/12/07 07:18:01;;;;;;;45.97;22.60;;;0.90;99.90;;;;;;4992212;28;20060;-52
2021/12/07 07:20:27;;;;;;;42.50;23.55;;;0.90;99.90;;;;;;4991794;28;20050;-46
2021/12/07 07:22:54;;;;;;;49.47;24.90;;;0.90;99.90;;;;;;4965381;28;20057;-49
2021/12/07 07:25:20;;;;;;;55.47;26.13;;;0.90;99.90;;;;;;5008116;28;20050;-51
2021/12/07 07:27:47;;;;;;;53.30;23.13;;;1.00;99.90;;;;;;4972848;28;20741;-47
2021/12/07 07:30:17;;;;;;;51.20;24.00;;;1.00;99.90;;;;;;5001347;28;20042;-53
2021/12/07 07:32:44;;;;;;;53.03;24.80;;;1.00;99.90;;;;;;4981672;28;20050;-54
2021/12/07 07:35:12;;;;;;;45.58;23.08;;;1.00;99.90;;;;;;4982028;28;20049;-50
2021/12/07 07:37:39;;;;;;;50.85;24.10;;;1.10;99.90;;;;;;4980950;28;20061;-50
2021/12/07 07:40:09;;;;;;;49.78;23.10;;;1.10;99.90;;;;;;4984011;28;20054;-51
2021/12/07 07:42:35;;;;;;;42.42;22.23;;;1.10;99.90;;;;;;5009106;28;20121;-48
2021/12/07 07:45:28;;;;;;;47.35;20.88;;;1.20;99.90;;;;;;4988384;28;20057;-52
2021/12/07 07:47:54;;;;;;;47.03;22.02;;;1.20;99.90;;;;;;4966777;28;20097;-50
2021/12/07 07:50:21;;;;;;;37.90;20.70;;;1.20;99.90;;;;;;4974762;28;20067;-51
2021/12/07 07:52:48;;;;;;;40.88;21.02;;;1.20;99.90;;;;;;4998148;28;20073;-62
2021/12/07 07:55:15;;;;;;;44.90;21.98;;;1.30;99.90;;;;;;4962897;28;20069;-61
2021/12/07 07:57:41;;;;;;;39.28;20.08;;;1.30;99.90;;;;;;4999263;28;20053;-62
2021/12/07 08:00:10;;;;;;;39.63;20.40;;;1.40;99.90;;;;;;4992269;28;20046;-62
2021/12/07 08:02:39;;;;;;;32.30;18.42;;;1.40;99.90;;;;;;5004602;28;20053;-62
2021/12/07 08:05:05;;;;;;;32.13;18.67;;;1.30;99.90;;;;;;5005717;28;20058;-51
2021/12/07 08:07:31;;;;;;;34.78;17.75;;;1.40;99.90;;;;;;4999117;28;20119;-51
2021/12/07 08:09:57;;;;;;;37.55;17.90;;;1.40;99.90;;;;;;4982162;28;20061;-61
2021/12/07 08:12:23;;;;;;;34.28;17.88;;;1.40;99.90;;;;;;4983519;28;20484;-62
2021/12/07 08:14:51;;;;;;;35.25;18.58;;;1.50;99.90;;;;;;4989479;28;20513;-51
2021/12/07 08:17:17;;;;;;;33.58;17.65;;;1.50;99.90;;;;;;4984082;28;20126;-47
2021/12/07 08:19:43;;;;;;;34.08;16.50;;;1.50;99.90;;;;;;4985095;28;20093;-52
2021/12/07 08:22:09;;;;;;;31.05;17.63;;;1.50;99.90;;;;;;4975615;28;20061;-49
2021/12/07 08:24:36;;;;;;;33.03;18.00;;;1.60;99.90;;;;;;4972765;28;20070;-50
2021/12/07 08:27:02;;;;;;;29.50;15.20;;;1.80;99.90;;;;;;4995856;28;20116;-62
2021/12/07 08:29:28;;;;;;;31.23;17.77;;;1.80;99.90;;;;;;4991284;28;20400;-63
2021/12/07 08:31:54;;;;;;;26.90;15.25;;;1.90;99.90;;;;;;4999036;28;20540;-62
2021/12/07 08:34:21;;;;;;;26.60;16.20;;;2.00;99.90;;;;;;4991227;28;20092;-63
2021/12/07 08:36:47;;;;;;;24.95;14.20;;;2.20;99.90;;;;;;4991866;28;20485;-63
2021/12/07 08:39:15;;;;;;;24.52;13.38;;;2.50;99.90;;;;;;5009073;28;20089;-63
2021/12/07 08:41:41;;;;;;;21.50;12.25;;;2.70;99.90;;;;;;5009212;28;20080;-64
2021/12/07 08:44:08;;;;;;;20.55;12.48;;;2.70;99.90;;;;;;4990102;28;20054;-62
2021/12/07 08:46:35;;;;;;;23.20;11.43;;;2.70;99.90;;;;;;5009234;28;20048;-52
2021/12/07 08:49:03;;;;;;;19.92;11.85;;;2.90;99.90;;;;;;5009062;28;20101;-52
2021/12/07 08:51:29;;;;;;;17.75;10.63;;;3.00;99.90;;;;;;5007744;28;20054;-52
2021/12/07 08:54:16;;;;;;;18.65;10.45;;;3.10;99.90;;;;;;5009520;28;20370;-51
2021/12/07 08:59:45;;;;;;;17.58;9.90;;;3.20;99.90;;;;;;5009143;28;20714;-51
2021/12/07 09:02:18;;;;;;;21.45;10.68;;;3.40;99.90;;;;;;5003434;28;20125;-51
2021/12/07 09:04:46;;;;;;;17.30;10.27;;;3.70;99.90;;;;;;4997247;28;20129;-52
2021/12/07 09:07:12;;;;;;;17.23;9.73;;;3.70;99.90;;;;;;4978237;28;20045;-50
2021/12/07 09:09:42;;;;;;;23.05;11.20;;;3.70;99.90;;;;;;5000102;28;20112;-51
2021/12/07 09:12:13;;;;;;;16.33;9.32;;;3.70;99.90;;;;;;4997336;28;20404;-52
2021/12/07 09:14:42;;;;;;;16.27;10.23;;;3.70;99.90;;;;;;4991535;28;20520;-51
2021/12/07 09:17:11;;;;;;;17.85;10.45;;;3.70;99.90;;;;;;4991062;28;20093;-52
2021/12/07 09:19:37;;;;;;;19.05;11.63;;;3.60;99.90;;;;;;4991703;28;20057;-53
2021/12/07 09:22:04;;;;;;;20.50;11.52;;;3.40;99.90;;;;;;4983641;28;20047;-50
2021/12/07 09:24:31;;;;;;;17.55;10.73;;;3.40;99.90;;;;;;4964008;28;20082;-52
2021/12/07 09:26:58;;;;;;;15.75;10.90;;;3.50;99.90;;;;;;4972309;28;20046;-52
2021/12/07 09:29:24;;;;;;;17.52;9.52;;;3.60;99.90;;;;;;4974211;28;20504;-52
2021/12/07 09:31:51;;;;;;;17.77;10.27;;;3.60;99.90;;;;;;4975269;28;20046;-51
2021/12/07 09:34:17;;;;;;;16.30;10.45;;;3.40;99.90;;;;;;4951014;28;20053;-52
2021/12/07 09:36:44;;;;;;;22.83;11.15;;;3.40;99.90;;;;;;4988247;28;20491;-52
2021/12/07 09:39:16;;;;;;;20.67;11.25;;;3.30;99.90;;;;;;4966975;28;20398;-52
2021/12/07 09:41:43;;;;;;;15.60;9.60;;;3.20;99.90;;;;;;4974006;28;20057;-51
2021/12/07 09:44:10;;;;;;;24.25;11.02;;;3.10;99.90;;;;;;4992545;28;20160;-51
2021/12/07 09:46:39;;;;;;;21.20;11.02;;;3.00;99.90;;;;;;4968579;28;20510;-49
2021/12/07 09:49:07;;;;;;;21.73;11.32;;;3.10;99.90;;;;;;4957186;28;20062;-51
2021/12/07 09:51:34;;;;;;;20.35;11.25;;;3.20;99.90;;;;;;4974611;28;20498;-53
2021/12/07 09:54:01;;;;;;;22.63;11.18;;;3.30;99.90;;;;;;4974373;28;20053;-53
2021/12/07 09:56:27;;;;;;;19.85;10.98;;;3.30;99.90;;;;;;4974396;28;20078;-51
2021/12/07 09:58:55;;;;;;;23.63;10.60;;;3.20;99.90;;;;;;4991914;28;20421;-51
2021/12/07 10:01:23;;;;;;;18.10;10.02;;;3.30;99.90;;;;;;4974446;28;20054;-53
2021/12/07 10:03:51;;;;;;;24.33;11.32;;;3.30;99.90;;;;;;4992099;28;20053;-63
2021/12/07 10:06:19;;;;;;;18.25;10.32;;;3.30;99.90;;;;;;4974527;28;20050;-63
2021/12/07 10:08:46;;;;;;;18.33;9.65;;;3.40;99.90;;;;;;4972976;28;20061;-63
2021/12/07 10:11:12;;;;;;;17.67;10.27;;;3.70;99.90;;;;;;4956998;28;20504;-63
2021/12/07 10:13:43;;;;;;;16.45;9.32;;;4.00;99.90;;;;;;4975211;28;20804;-63
2021/12/07 10:16:12;;;;;;;20.45;9.52;;;4.40;99.90;;;;;;4980204;28;20037;-62
2021/12/07 10:18:42;;;;;;;17.65;9.80;;;4.80;99.90;;;;;;5000719;28;20054;-53
2021/12/07 10:21:24;;;;;;;15.70;8.68;;;5.00;99.90;;;;;;4991903;28;20039;-51
2021/12/07 10:24:06;;;;;;;19.08;8.20;;;4.90;99.90;;;;;;4974144;28;20129;-50
2021/12/07 10:26:39;;;;;;;18.58;8.13;;;4.80;99.90;;;;;;4991510;28;20042;-62
2021/12/07 10:29:13;;;;;;;13.90;7.57;;;4.70;99.90;;;;;;4942500;28;20641;-62
2021/12/07 10:31:43;;;;;;;18.23;8.43;;;4.70;99.90;;;;;;4974040;28;20058;-64
2021/12/07 10:34:24;;;;;;;15.82;7.97;;;4.50;99.90;;;;;;4974089;28;20050;-62
2021/12/07 10:37:03;;;;;;;17.08;8.68;;;4.60;99.90;;;;;;4961978;28;20101;-64
2021/12/07 10:39:42;;;;;;;16.98;7.55;;;4.90;99.90;;;;;;4973780;28;20051;-63
2021/12/07 10:42:12;;;;;;;17.27;7.35;;;5.10;99.90;;;;;;4989721;28;20044;-63
2021/12/07 10:44:40;;;;;;;20.80;7.88;;;5.40;99.90;;;;;;4973188;28;20450;-55
2021/12/07 10:47:13;;;;;;;14.32;6.72;;;5.50;99.90;;;;;;4989743;28;20042;-55
2021/12/07 10:49:46;;;;;;;13.38;6.85;;;6.00;99.90;;;;;;4990102;28;20385;-63
2021/12/07 10:52:39;;;;;;;13.82;6.15;;;6.90;99.90;;;;;;4991232;28;20050;-62
2021/12/07 10:55:13;;;;;;;;;;;7.40;99.90;;;;;;4931332;28;20046;-63
2021/12/07 10:57:51;;;;;;;14.70;5.47;;;7.50;99.90;;;;;;4976940;28;20088;-62
2021/12/07 11:00:23;;;;;;;14.00;6.00;;;7.70;99.90;;;;;;4973045;28;20053;-62
2021/12/07 11:02:56;;;;;;;11.65;5.32;;;7.70;99.90;;;;;;4985544;28;20054;-62
2021/12/07 11:05:34;;;;;;;13.63;6.15;;;7.40;99.90;;;;;;5006024;28;20556;-63
2021/12/07 11:08:01;;;;;;;14.20;5.28;;;7.50;99.90;;;;;;4989406;28;20499;-62
2021/12/07 11:10:34;;;;;;;9.63;4.97;;;7.40;99.90;;;;;;4990722;28;20463;-62
2021/12/07 11:13:12;;;;;;;14.02;5.40;;;7.10;99.90;;;;;;4996652;28;20058;-62
2021/12/07 11:15:50;;;;;;;15.07;5.63;;;7.10;99.90;;;;;;4990837;28;20503;-63
2021/12/07 11:18:20;;;;;;;13.48;5.72;;;7.20;99.90;;;;;;4991354;28;20058;-62
2021/12/07 11:20:46;;;;;;;14.13;5.60;;;7.10;99.90;;;;;;5010649;28;20485;-63
2021/12/07 11:23:21;;;;;;;12.98;5.63;;;7.00;99.90;;;;;;5010142;28;20133;-55
2021/12/07 11:29:40;;;;;;;13.55;6.03;;;6.60;99.90;;;;;;4982949;28;20049;-62
2021/12/07 11:31:40;;;;;;;18.65;5.38;;;6.50;99.90;;;;;;5010706;28;19943;-63
2021/12/07 11:34:15;;;;;;;13.93;5.75;;;6.90;99.90;;;;;;5010260;28;20508;-55
2021/12/07 11:36:41;;;;;;;14.68;5.90;;;7.10;99.90;;;;;;4992969;28;20057;-55
2021/12/07 11:39:32;;;;;;;15.57;5.88;;;7.40;99.90;;;;;;5010768;28;20065;-56
2021/12/07 11:42:12;;;;;;;18.40;6.07;;;7.90;99.90;;;;;;4989365;28;20042;-55
2021/12/07 11:44:57;;;;;;;13.40;5.40;;;8.40;99.90;;;;;;4990928;28;20602;-55
2021/12/07 11:47:30;;;;;;;10.80;5.18;;;8.60;99.90;;;;;;4979826;28;20111;-57
2021/12/07 11:49:59;;;;;;;13.27;5.75;;;8.60;99.90;;;;;;5002318;28;20064;-63
2021/12/07 11:52:25;;;;;;;16.38;5.78;;;8.80;99.90;;;;;;5009687;28;20089;-63
2021/12/07 11:54:51;;;;;;;17.05;6.25;;;9.00;99.90;;;;;;5006087;28;20153;-63
2021/12/07 11:57:19;;;;;;;12.13;5.03;;;9.20;99.90;;;;;;5009395;28;20046;-62
2021/12/07 11:59:47;;;;;;;14.77;5.55;;;9.40;99.90;;;;;;5008276;28;20042;-61
2021/12/07 12:02:15;;;;;;;10.50;4.88;;;9.80;99.90;;;;;;4990456;28;20049;-57
2021/12/07 12:04:42;;;;;;;11.07;5.18;;;10.00;99.90;;;;;;4986742;28;20054;-62
2021/12/07 12:07:09;;;;;;;14.15;5.03;;;10.20;99.90;;;;;;5008898;28;20050;-62
2021/12/07 12:09:45;;;;;;;11.25;4.93;;;10.30;99.90;;;;;;4991784;28;20042;-62
2021/12/07 12:12:34;;;;;;;11.02;4.53;;;10.60;99.90;;;;;;4976298;28;20050;-62
2021/12/07 12:15:46;;;;;;;12.85;4.97;;;10.80;99.90;;;;;;5009705;28;20057;-62
2021/12/07 12:18:44;;;;;;;15.07;4.90;;;11.10;99.90;;;;;;4958122;28;20137;-62
2021/12/07 12:21:32;;;;;;;14.55;5.38;;;10.60;99.90;;;;;;4990230;28;20061;-62
2021/12/07 12:24:08;;;;;;;10.48;5.43;;;10.70;99.90;;;;;;4988025;28;20366;-63
2021/12/07 12:26:36;;;;;;;12.43;4.78;;;10.70;99.90;;;;;;4989827;28;20053;-62
2021/12/07 12:29:18;;;;;;;10.60;4.18;;;10.70;99.90;;;;;;5004535;28;20042;-62
2021/12/07 12:31:52;;;;;;;14.73;4.97;;;10.30;99.90;;;;;;4956242;28;20501;-63
2021/12/07 12:34:28;;;;;;;10.10;4.70;;;9.90;99.90;;;;;;4975175;28;20046;-54
2021/12/07 12:37:02;;;;;;;13.70;5.07;;;9.50;99.90;;;;;;4993456;28;20057;-54
2021/12/07 12:39:57;;;;;;;13.85;5.30;;;9.20;99.90;;;;;;4996908;28;20081;-54
2021/12/07 12:42:25;;;;;;;15.05;5.53;;;9.00;99.90;;;;;;5000866;28;20054;-54
2021/12/07 12:45:04;;;;;;;14.00;4.93;;;8.90;99.90;;;;;;4993495;28;20133;-53
2021/12/07 12:47:32;;;;;;;11.20;5.00;;;8.90;99.90;;;;;;4985050;28;20068;-62
2021/12/07 12:50:20;;;;;;;10.32;5.35;;;9.10;99.90;;;;;;4995470;28;20085;-52
2021/12/07 12:52:57;;;;;;;12.75;4.72;;;9.00;99.90;;;;;;4973717;28;20050;-62
2021/12/07 12:55:26;;;;;;;15.00;5.13;;;9.10;99.90;;;;;;5003957;28;20053;-62
2021/12/07 12:57:53;;;;;;;15.68;5.95;;;9.40;99.90;;;;;;4995203;28;20393;-52
2021/12/07 13:00:20;;;;;;;14.32;5.10;;;9.50;99.90;;;;;;5012558;28;20054;-54
2021/12/07 13:02:53;;;;;;;10.48;5.15;;;9.50;99.90;;;;;;4998450;28;20081;-61
2021/12/07 13:05:37;;;;;;;16.95;6.40;;;9.40;99.90;;;;;;4990766;28;20045;-62
2021/12/07 13:08:14;;;;;;;16.50;5.65;;;9.10;99.90;;;;;;4976569;28;20042;-62
2021/12/07 13:11:03;;;;;;;12.05;5.43;;;8.80;99.90;;;;;;5002253;28;20050;-52
2021/12/07 13:13:31;;;;;;;14.65;5.30;;;8.80;99.90;;;;;;4977714;28;20133;-52
2021/12/07 13:15:57;;;;;;;12.05;5.43;;;8.70;99.90;;;;;;4974389;28;20116;-62
2021/12/07 13:18:32;;;;;;;12.48;5.22;;;8.70;99.90;;;;;;4990124;28;20107;-53
2021/12/07 13:20:58;;;;;;;12.73;5.53;;;8.70;99.90;;;;;;4990103;28;20043;-53
2021/12/07 13:23:29;;;;;;;12.20;5.47;;;8.60;99.90;;;;;;4972004;28;20082;-48
2021/12/07 13:25:55;;;;;;;15.65;5.63;;;8.70;99.90;;;;;;4987416;28;20046;-53
2021/12/07 13:28:25;;;;;;;14.88;5.68;;;8.80;99.90;;;;;;4953082;28;20057;-63
2021/12/07 13:31:02;;;;;;;15.27;5.78;;;8.70;99.90;;;;;;4975259;28;20538;-61
2021/12/07 13:33:35;;;;;;;13.40;6.20;;;8.60;99.90;;;;;;4972971;28;20050;-60
2021/12/07 13:36:27;;;;;;;14.75;5.50;;;8.50;99.90;;;;;;4982328;28;20073;-60
2021/12/07 13:38:53;;;;;;;15.50;7.10;;;8.20;99.90;;;;;;4972154;28;20050;-60
2021/12/07 13:41:21;;;;;;;14.80;6.70;;;7.90;99.90;;;;;;4996077;28;20501;-60
2021/12/07 13:43:50;;;;;;;17.73;6.75;;;7.70;99.90;;;;;;4992832;28;20077;-60
2021/12/07 13:46:22;;;;;;;17.17;6.43;;;7.40;99.90;;;;;;4958782;28;20125;-60
2021/12/07 13:48:51;;;;;;;20.10;7.93;;;7.10;99.90;;;;;;4973978;28;20092;-60
2021/12/07 13:51:19;;;;;;;19.95;8.32;;;6.90;99.90;;;;;;4974995;28;20549;-60
2021/12/07 13:53:48;;;;;;;16.63;8.13;;;6.80;99.90;;;;;;4974304;28;20816;-60
2021/12/07 13:56:14;;;;;;;19.23;8.40;;;6.70;99.90;;;;;;4979635;28;20378;-60
2021/12/07 13:58:49;;;;;;;12.40;8.07;;;6.60;99.90;;;;;;4981722;28;20051;-60
2021/12/07 14:01:15;;;;;;;20.65;9.30;;;6.50;99.90;;;;;;4956964;28;20053;-60
2021/12/07 14:03:45;;;;;;;15.85;9.25;;;6.30;99.90;;;;;;4957673;28;20117;-60
2021/12/07 14:06:12;;;;;;;18.50;8.50;;;6.20;99.90;;;;;;4973579;28;20038;-60
2021/12/07 14:08:39;;;;;;;14.00;8.82;;;6.00;99.90;;;;;;4988774;28;20044;-60
2021/12/07 14:11:05;;;;;;;15.60;10.10;;;5.90;99.90;;;;;;4969771;28;20135;-60
2021/12/07 14:13:31;;;;;;;18.20;9.80;;;5.80;99.90;;;;;;4965901;28;20104;-58
2021/12/07 14:15:58;;;;;;;19.92;9.93;;;5.60;99.90;;;;;;4985032;28;20050;-60
2021/12/07 14:18:26;;;;;;;24.08;10.38;;;5.50;99.90;;;;;;4962031;28;20089;-60
2021/12/07 14:20:55;;;;;;;14.65;10.23;;;5.40;99.90;;;;;;4951309;28;20052;-61
2021/12/07 14:23:32;;;;;;;22.20;11.25;;;5.30;99.90;;;;;;4961252;28;20046;-53
2021/12/07 14:26:03;;;;;;;20.27;11.75;;;5.20;99.90;;;;;;4993376;28;20054;-52
2021/12/07 14:28:42;;;;;;;19.77;11.88;;;5.10;99.90;;;;;;4989881;28;20060;-52
2021/12/07 14:31:17;;;;;;;28.98;13.40;;;5.00;99.90;;;;;;4993071;28;20041;-52